createdAt,value
2023-07-17T00:01:38.802Z,5.22
2023-07-17T00:10:31.034Z,4.53
2023-07-17T00:15:11.113Z,3.63
2023-07-17T00:19:12.761Z,4.55
2023-07-17T00:23:33.414Z,3.88
2023-07-17T00:28:02.062Z,6.13
2023-07-17T00:32:31.586Z,9.85
2023-07-17T00:37:04.701Z,3.90
2023-07-17T00:41:46.818Z,5.82
2023-07-17T00:46:44.894Z,4.67
2023-07-17T00:51:18.018Z,4.10
2023-07-17T00:55:34.383Z,7.22
2023-07-17T00:59:51.857Z,6.07
2023-07-17T01:04:30.288Z,4.18
2023-07-17T01:08:54.385Z,6.57
2023-07-17T01:12:58.611Z,3.55
2023-07-17T01:17:46.981Z,5.63
2023-07-17T01:22:45.309Z,4.60
2023-07-17T01:27:01.873Z,4.75
2023-07-17T01:36:00.297Z,5.00
2023-07-17T01:40:24.190Z,4.78
2023-07-17T01:49:45.863Z,4.25
2023-07-17T01:54:17.345Z,6.88
2023-07-17T01:58:51.217Z,7.45
2023-07-17T02:03:38.594Z,5.78
2023-07-17T02:08:18.351Z,4.50
2023-07-17T02:12:32.920Z,7.53
2023-07-17T02:16:51.049Z,9.15
2023-07-17T02:21:45.630Z,5.18
2023-07-17T02:26:52.670Z,5.93
2023-07-17T02:31:15.926Z,4.43
2023-07-17T02:35:36.721Z,5.28
2023-07-17T02:40:21.127Z,5.47
2023-07-17T02:45:29.517Z,4.43
2023-07-17T02:50:06.357Z,4.33
2023-07-17T02:54:18.880Z,5.70
2023-07-17T02:58:38.274Z,6.22
2023-07-17T03:03:48.224Z,8.40
2023-07-17T03:08:16.598Z,9.20
2023-07-17T03:18:34.911Z,4.72
2023-07-17T03:23:00.464Z,7.25
2023-07-17T03:32:32.276Z,5.53
2023-07-17T03:36:41.573Z,13.55
2023-07-17T03:42:46.873Z,14.93
2023-07-17T04:05:10.767Z,12.32
2023-07-17T04:09:47.558Z,8.98
2023-07-17T04:14:37.565Z,7.82
2023-07-17T04:19:38.310Z,5.03
2023-07-17T04:24:04.176Z,11.88
2023-07-17T04:28:54.689Z,7.32
2023-07-17T04:32:59.675Z,9.70
2023-07-17T04:37:02.080Z,12.65
2023-07-17T04:41:08.971Z,14.93
2023-07-17T04:45:46.110Z,8.20
2023-07-17T04:50:01.173Z,10.60
2023-07-17T04:54:06.314Z,7.25
2023-07-17T04:58:08.576Z,8.30
2023-07-17T05:02:14.674Z,10.40
2023-07-17T05:06:29.819Z,15.88
2023-07-17T05:10:34.066Z,7.55
2023-07-17T05:14:45.987Z,9.07
2023-07-17T05:19:21.539Z,6.10
2023-07-17T05:23:56.338Z,4.82
2023-07-17T05:28:16.145Z,7.68
2023-07-17T05:32:29.269Z,4.53
2023-07-17T05:36:38.617Z,8.13
2023-07-17T05:40:54.540Z,4.72
2023-07-17T05:45:23.251Z,14.50
2023-07-17T05:49:30.137Z,7.40
2023-07-17T05:53:48.183Z,11.38
2023-07-17T05:57:51.863Z,6.53
2023-07-17T06:01:55.114Z,12.20
2023-07-17T06:06:10.579Z,7.25
2023-07-17T06:10:17.239Z,8.55
2023-07-17T06:14:22.520Z,11.15
2023-07-17T06:18:27.425Z,12.13
2023-07-17T06:22:32.011Z,7.05
2023-07-17T06:26:39.502Z,7.90
2023-07-17T06:30:54.372Z,6.82
2023-07-17T06:35:03.943Z,9.30
2023-07-17T06:39:56.900Z,5.10
2023-07-17T06:44:08.440Z,6.28
2023-07-17T06:48:38.535Z,6.65
2023-07-17T07:04:48.260Z,13.85
2023-07-17T07:09:18.462Z,41.00
2023-07-17T07:13:22.405Z,7.63
2023-07-17T07:17:35.983Z,6.80
2023-07-17T07:21:42.304Z,11.02
2023-07-17T07:25:55.199Z,10.68
2023-07-17T07:29:59.776Z,7.35
2023-07-17T07:34:12.391Z,8.02
2023-07-17T07:38:35.193Z,9.88
2023-07-17T07:42:44.994Z,8.30
2023-07-17T07:46:47.085Z,7.07
2023-07-17T07:50:53.097Z,14.05
2023-07-17T07:55:10.929Z,11.93
2023-07-17T07:59:29.815Z,11.77
2023-07-17T08:03:33.086Z,8.30
2023-07-17T08:07:51.778Z,11.85
2023-07-17T08:16:30.284Z,12.93
2023-07-17T08:20:42.253Z,8.27
2023-07-17T08:29:28.475Z,7.85
2023-07-17T08:33:31.086Z,11.93
2023-07-17T08:37:39.630Z,14.23
2023-07-17T08:42:11.576Z,18.40
2023-07-17T08:46:17.651Z,20.83
2023-07-17T08:50:54.301Z,17.67
2023-07-17T08:55:03.475Z,34.25
2023-07-17T08:59:12.618Z,35.20
2023-07-17T09:03:52.741Z,34.78
2023-07-17T09:08:07.307Z,28.92
2023-07-17T09:12:33.812Z,30.15
2023-07-17T09:16:50.595Z,27.77
2023-07-17T09:21:07.060Z,40.40
2023-07-17T09:25:32.673Z,23.42
2023-07-17T09:29:52.355Z,20.58
2023-07-17T09:34:06.409Z,19.73
2023-07-17T09:38:16.749Z,26.08
2023-07-17T09:48:27.305Z,12.02
2023-07-17T09:52:32.787Z,7.75
2023-07-17T09:56:40.178Z,33.25
2023-07-17T10:00:52.818Z,15.05
2023-07-17T10:09:31.861Z,11.52
2023-07-17T10:13:53.181Z,28.25
2023-07-17T10:18:38.573Z,7.97
2023-07-17T10:23:29.692Z,8.65
2023-07-17T10:28:13.143Z,10.30
2023-07-17T10:33:09.212Z,10.35
2023-07-17T10:37:32.199Z,11.32
2023-07-17T10:41:46.120Z,8.85
2023-07-17T10:46:29.490Z,7.82
2023-07-17T10:51:07.064Z,11.02
2023-07-17T11:02:07.100Z,15.35
2023-07-17T11:11:15.717Z,7.38
2023-07-17T11:15:25.982Z,10.25
2023-07-17T11:25:30.447Z,6.38
2023-07-17T11:30:06.100Z,6.72
2023-07-17T11:34:41.490Z,12.35
2023-07-17T11:39:14.059Z,8.17
2023-07-17T11:43:53.400Z,8.82
2023-07-17T11:53:11.279Z,8.38
2023-07-17T11:57:34.761Z,7.43
2023-07-17T12:01:42.037Z,10.40
2023-07-17T12:05:50.582Z,8.90
2023-07-17T12:09:57.731Z,6.67
2023-07-17T12:14:03.051Z,7.65
2023-07-17T12:18:10.576Z,9.98
2023-07-17T12:26:42.923Z,9.02
2023-07-17T12:30:50.143Z,8.13
2023-07-17T12:35:02.361Z,8.23
2023-07-17T12:39:23.684Z,13.63
2023-07-17T12:52:45.666Z,8.23
2023-07-17T12:56:56.998Z,10.40
2023-07-17T13:01:05.936Z,6.18
2023-07-17T13:05:10.901Z,11.35
2023-07-17T13:09:17.960Z,6.65
2023-07-17T13:13:22.559Z,9.10
2023-07-17T13:17:46.545Z,8.70
2023-07-17T13:22:18.831Z,7.13
2023-07-17T13:26:28.112Z,7.03
2023-07-17T13:30:31.713Z,8.43
2023-07-17T13:34:37.483Z,7.85
2023-07-17T13:38:49.185Z,6.18
2023-07-17T13:42:52.095Z,10.63
2023-07-17T13:47:04.694Z,12.60
2023-07-17T13:51:09.658Z,7.70
2023-07-17T13:55:18.380Z,6.78
2023-07-17T13:59:23.493Z,8.45
2023-07-17T14:03:38.661Z,7.00
2023-07-17T14:07:59.934Z,8.10
2023-07-17T14:12:05.396Z,7.70
2023-07-17T14:16:11.956Z,11.10
2023-07-17T14:20:15.083Z,11.85
2023-07-17T14:24:22.333Z,6.95
2023-07-17T14:32:28.079Z,7.65
2023-07-17T14:36:33.508Z,7.03
2023-07-17T14:40:36.290Z,10.38
2023-07-17T14:44:45.447Z,6.45
2023-07-17T14:49:05.234Z,6.65
2023-07-17T14:58:12.273Z,7.65
2023-07-17T15:02:33.633Z,7.95
2023-07-17T15:07:02.900Z,5.68
2023-07-17T15:11:31.921Z,8.00
2023-07-17T15:15:51.878Z,7.55
2023-07-17T15:25:05.669Z,6.97
2023-07-17T15:29:27.592Z,5.97
2023-07-17T15:34:07.769Z,7.68
2023-07-17T15:38:43.575Z,7.75
2023-07-17T15:43:09.095Z,6.55
2023-07-17T15:47:51.081Z,7.30
2023-07-17T16:01:47.595Z,6.75
2023-07-17T16:11:43.244Z,9.77
2023-07-17T16:40:41.336Z,5.88
2023-07-17T16:57:07.262Z,9.88
2023-07-17T17:08:39.556Z,6.28
2023-07-17T17:19:37.023Z,10.23
2023-07-17T17:25:02.460Z,9.38
2023-07-17T17:30:31.534Z,7.18
2023-07-17T17:35:22.578Z,9.63
2023-07-17T17:40:17.701Z,12.77
2023-07-17T17:49:23.098Z,8.57
2023-07-17T17:53:40.110Z,10.88
2023-07-17T17:58:23.147Z,9.18
2023-07-17T18:07:38.208Z,11.82
2023-07-17T18:12:17.895Z,10.45
2023-07-17T18:21:38.484Z,11.70
2023-07-17T18:25:46.536Z,12.35
2023-07-17T18:34:31.092Z,11.25
2023-07-17T18:38:45.367Z,8.57
2023-07-17T18:43:27.462Z,14.82
2023-07-17T18:52:32.136Z,10.48
2023-07-17T18:56:33.484Z,12.05
2023-07-17T19:00:39.761Z,8.75
2023-07-17T19:04:58.629Z,13.82
2023-07-17T19:09:13.527Z,12.73
2023-07-17T19:13:29.670Z,12.23
2023-07-17T19:17:39.881Z,9.93
2023-07-17T19:22:10.274Z,14.68
2023-07-17T19:26:29.195Z,10.48
2023-07-17T19:30:47.728Z,13.18
2023-07-17T19:34:57.162Z,6.90
2023-07-17T19:39:24.745Z,7.30
2023-07-17T19:44:14.261Z,7.07
2023-07-17T19:48:19.632Z,7.50
2023-07-17T19:53:06.673Z,8.43
2023-07-17T19:57:33.931Z,6.43
2023-07-17T20:01:56.561Z,6.97
2023-07-17T20:06:23.869Z,5.85
2023-07-17T20:10:57.191Z,11.60
2023-07-17T20:20:20.477Z,6.90
2023-07-17T20:24:41.453Z,5.43
2023-07-17T20:28:47.950Z,9.05
2023-07-17T20:33:24.150Z,4.68
2023-07-17T20:47:25.084Z,5.25
2023-07-17T20:52:01.116Z,7.72
2023-07-17T20:56:34.907Z,4.35
2023-07-17T21:05:31.674Z,5.53
2023-07-17T21:14:43.559Z,10.13
2023-07-17T21:19:14.202Z,9.00
2023-07-17T21:23:52.520Z,8.43
2023-07-17T21:28:26.124Z,5.55
2023-07-17T21:33:17.772Z,13.43
2023-07-17T21:38:04.240Z,5.85
2023-07-17T21:42:34.826Z,8.07
2023-07-17T21:51:45.329Z,4.57
2023-07-17T21:56:05.475Z,7.80
2023-07-17T22:06:51.108Z,5.07
2023-07-17T22:17:37.805Z,6.35
2023-07-17T22:22:32.030Z,5.63
2023-07-17T22:33:01.214Z,6.68
2023-07-17T22:43:37.124Z,5.80
2023-07-17T22:48:45.662Z,6.70
2023-07-17T22:58:41.637Z,5.32
2023-07-17T23:03:18.282Z,7.18
2023-07-17T23:08:21.683Z,8.80
2023-07-17T23:13:05.439Z,11.18
2023-07-17T23:17:42.022Z,4.68
2023-07-17T23:22:28.680Z,4.70
2023-07-17T23:32:31.419Z,8.30
2023-07-17T23:37:39.342Z,5.57
2023-07-17T23:42:37.686Z,5.70
2023-07-17T23:47:27.800Z,8.03
2023-07-17T23:53:03.913Z,13.10
